Great Neck Estates, New York
Current Conditions -  °F | °C
As of 5:51 AM on Friday 31 Oct 2014 (Local Time) from KLGA Reporting Station
Broken Clouds Broken Clouds  
Wind Chill:   Ceiling: 4800
Heat Index:   Visibility: 10mi
Dew Point:   Wind: 6mph
Humidity: 63%   Direction: 20°NNE
Pressure: 30.01"   Gusts: NA
Location:  40.786°N, 73.7291°W
Report Text: KLGA 310951Z 02005KT 10SM BKN048 07/01 A3001 RMK AO2 SLP162 T00720006
Loading
Personal Weather Stations






























Interactive Weather Map
Tropical Storm Tracking
New forecast layout! Learn more

10-Day Weather Forecast

Advertisements
Track Severe Weather on mobile